Time;durP1;ratioP1;P1;durP2;ratioP2;P2;SDS_P1;SDS_P2;PMS_P1;PMS_P2;Temp;Humidity;BMP_temperature;BMP_pressure;BME280_temperature;BME280_humidity;BME280_pressure;Samples;Min_cycle;Max_cycle;Signal;HPM_P1;HPM_P2
2022/08/30 00:02:19;;;;;;;61.13;5.07;;;;;;;;;;5073396;28;20578;-67
2022/08/30 00:04:48;;;;;;;61.27;5.07;;;;;;;;;;5073436;28;20820;-68
2022/08/30 00:07:15;;;;;;;62.30;6.10;;;;;;;;;;5073326;28;20481;-67
2022/08/30 00:09:42;;;;;;;61.20;5.17;;;;;;;;;;5072936;28;20489;-67
2022/08/30 00:12:09;;;;;;;62.53;6.00;;;;;;;;;;5073010;28;20975;-67
2022/08/30 00:14:37;;;;;;;63.10;5.73;;;;;;;;;;5072896;28;20455;-67
2022/08/30 00:17:04;;;;;;;61.73;6.20;;;;;;;;;;5073153;28;20451;-66
2022/08/30 00:19:31;;;;;;;60.60;5.27;;;;;;;;;;5072718;28;20486;-68
2022/08/30 00:22:00;;;;;;;62.50;6.37;;;;;;;;;;5072366;28;20451;-68
2022/08/30 00:24:27;;;;;;;61.67;5.30;;;;;;;;;;5072935;28;20442;-67
2022/08/30 00:26:54;;;;;;;60.47;4.60;;;;;;;;;;5072778;28;20483;-67
2022/08/30 00:29:21;;;;;;;60.37;4.60;;;;;;;;;;5072357;28;20957;-68
2022/08/30 00:31:48;;;;;;;60.17;5.03;;;;;;;;;;5072764;28;20458;-67
2022/08/30 00:34:16;;;;;;;60.60;4.70;;;;;;;;;;5072733;28;20534;-68
2022/08/30 00:36:43;;;;;;;60.60;5.17;;;;;;;;;;5072670;28;20954;-68
2022/08/30 00:39:12;;;;;;;61.23;5.43;;;;;;;;;;5072193;28;20493;-67
2022/08/30 00:41:39;;;;;;;63.17;5.90;;;;;;;;;;5072439;28;20452;-67
2022/08/30 00:44:06;;;;;;;60.93;4.40;;;;;;;;;;5072748;28;20452;-68
2022/08/30 00:46:34;;;;;;;61.60;6.17;;;;;;;;;;5072616;28;20447;-67
2022/08/30 00:49:03;;;;;;;61.53;5.50;;;;;;;;;;5072057;28;20447;-67
2022/08/30 00:51:30;;;;;;;61.90;5.57;;;;;;;;;;5072447;28;20449;-67
2022/08/30 00:53:58;;;;;;;61.20;5.10;;;;;;;;;;5072272;28;20502;-67
2022/08/30 00:56:27;;;;;;;60.97;4.57;;;;;;;;;;5072237;28;20481;-67
2022/08/30 00:58:55;;;;;;;60.50;5.30;;;;;;;;;;5071901;28;20444;-67
2022/08/30 01:01:23;;;;;;;62.67;6.67;;;;;;;;;;5072322;28;20452;-68
2022/08/30 01:03:50;;;;;;;60.90;5.73;;;;;;;;;;5072156;28;20467;-67
2022/08/30 01:06:18;;;;;;;60.97;4.57;;;;;;;;;;5072198;28;20450;-67
2022/08/30 01:08:46;;;;;;;60.83;5.60;;;;;;;;;;5071767;28;20446;-66
2022/08/30 01:11:13;;;;;;;62.20;6.17;;;;;;;;;;5072412;28;20732;-67
2022/08/30 01:13:42;;;;;;;60.77;4.77;;;;;;;;;;5072074;28;20582;-67
2022/08/30 01:16:09;;;;;;;62.07;6.07;;;;;;;;;;5072190;28;20447;-68
2022/08/30 01:18:37;;;;;;;61.70;5.23;;;;;;;;;;5072414;28;20452;-67
2022/08/30 01:21:09;;;;;;;61.40;5.40;;;;;;;;;;5071947;28;20482;-67
2022/08/30 01:23:39;;;;;;;62.00;5.27;;;;;;;;;;5071872;28;20511;-67
2022/08/30 01:26:07;;;;;;;62.20;5.70;;;;;;;;;;5071976;28;20457;-68
2022/08/30 01:28:35;;;;;;;61.43;4.80;;;;;;;;;;5071425;28;20457;-67
2022/08/30 01:31:02;;;;;;;60.63;5.53;;;;;;;;;;5071666;28;20450;-66
2022/08/30 01:33:29;;;;;;;61.77;5.07;;;;;;;;;;5071938;28;20550;-67
2022/08/30 01:35:57;;;;;;;63.87;5.80;;;;;;;;;;5071616;28;20463;-67
2022/08/30 01:38:26;;;;;;;63.60;5.87;;;;;;;;;;5071888;28;20534;-67
2022/08/30 01:40:59;;;;;;;61.17;5.03;;;;;;;;;;5071651;28;20483;-67
2022/08/30 01:43:26;;;;;;;62.17;5.43;;;;;;;;;;5071755;28;20805;-67
2022/08/30 01:45:53;;;;;;;62.03;5.63;;;;;;;;;;5071695;28;20450;-67
2022/08/30 01:48:20;;;;;;;62.23;5.87;;;;;;;;;;5069794;28;20530;-68
2022/08/30 01:50:48;;;;;;;62.53;6.77;;;;;;;;;;5071453;28;20466;-68
2022/08/30 01:53:15;;;;;;;61.10;5.07;;;;;;;;;;5071779;28;20500;-67
2022/08/30 01:55:43;;;;;;;60.53;4.93;;;;;;;;;;5072192;28;20450;-67
2022/08/30 01:58:11;;;;;;;62.87;5.53;;;;;;;;;;5071420;28;20447;-68
2022/08/30 02:00:38;;;;;;;62.10;6.07;;;;;;;;;;5071541;28;20807;-68
2022/08/30 02:03:05;;;;;;;60.87;5.53;;;;;;;;;;5071561;28;20487;-67
2022/08/30 02:05:33;;;;;;;62.70;6.07;;;;;;;;;;5071519;28;20460;-67
2022/08/30 02:08:00;;;;;;;60.60;5.10;;;;;;;;;;5071668;28;20446;-67
2022/08/30 02:10:28;;;;;;;61.60;5.10;;;;;;;;;;5071111;28;20457;-68
2022/08/30 02:12:55;;;;;;;61.80;5.33;;;;;;;;;;5071538;28;20474;-67
2022/08/30 02:15:23;;;;;;;61.60;5.40;;;;;;;;;;5071425;28;20970;-68
2022/08/30 02:17:51;;;;;;;61.33;4.50;;;;;;;;;;5071902;28;20453;-67
2022/08/30 02:20:18;;;;;;;61.73;5.27;;;;;;;;;;5071090;28;20478;-67
2022/08/30 02:22:46;;;;;;;61.70;5.40;;;;;;;;;;5071391;28;20481;-67
2022/08/30 02:25:13;;;;;;;62.90;5.53;;;;;;;;;;5071247;28;20457;-67
2022/08/30 02:27:40;;;;;;;63.60;5.90;;;;;;;;;;5071139;28;20814;-68
2022/08/30 02:30:09;;;;;;;61.40;5.70;;;;;;;;;;5071114;28;20443;-67
2022/08/30 02:32:37;;;;;;;61.67;5.60;;;;;;;;;;5071148;28;21010;-68
2022/08/30 02:35:05;;;;;;;61.33;5.20;;;;;;;;;;5071284;28;20453;-68
2022/08/30 02:37:32;;;;;;;64.30;5.67;;;;;;;;;;5071068;28;20456;-67
2022/08/30 02:39:59;;;;;;;62.20;5.60;;;;;;;;;;5070825;28;20479;-68
2022/08/30 02:42:26;;;;;;;60.93;5.13;;;;;;;;;;5071408;28;20466;-67
2022/08/30 02:44:53;;;;;;;60.67;5.57;;;;;;;;;;5074151;28;20472;-67
2022/08/30 02:47:20;;;;;;;63.50;5.47;;;;;;;;;;5074804;28;20453;-67
2022/08/30 02:49:49;;;;;;;62.07;5.97;;;;;;;;;;5074452;28;20446;-67
2022/08/30 02:52:16;;;;;;;62.40;5.40;;;;;;;;;;5074363;28;20472;-66
2022/08/30 02:54:43;;;;;;;61.10;4.60;;;;;;;;;;5074565;28;20541;-67
2022/08/30 02:57:12;;;;;;;60.47;5.10;;;;;;;;;;5074720;28;20445;-67
2022/08/30 02:59:44;;;;;;;61.47;5.37;;;;;;;;;;5074282;28;20484;-68
2022/08/30 03:02:11;;;;;;;61.93;5.23;;;;;;;;;;5074547;28;20474;-67
2022/08/30 03:04:39;;;;;;;62.87;5.90;;;;;;;;;;5074882;28;20457;-67
2022/08/30 03:07:07;;;;;;;67.40;7.13;;;;;;;;;;5074592;28;20527;-67
2022/08/30 03:09:35;;;;;;;62.77;5.73;;;;;;;;;;5073975;28;20939;-67
2022/08/30 03:12:03;;;;;;;60.97;5.80;;;;;;;;;;5074078;28;20481;-68
2022/08/30 03:14:30;;;;;;;61.97;5.87;;;;;;;;;;5074325;28;20479;-66
2022/08/30 03:16:58;;;;;;;61.80;5.70;;;;;;;;;;5074285;28;20457;-67
2022/08/30 03:19:25;;;;;;;60.87;5.33;;;;;;;;;;5074373;28;20465;-68
2022/08/30 03:21:53;;;;;;;63.30;5.80;;;;;;;;;;5074151;28;20456;-67
2022/08/30 03:24:21;;;;;;;61.37;5.03;;;;;;;;;;5074337;28;20447;-68
2022/08/30 03:26:48;;;;;;;62.00;5.30;;;;;;;;;;5074115;28;20447;-68
2022/08/30 03:29:16;;;;;;;61.30;4.87;;;;;;;;;;5073969;28;20796;-67
2022/08/30 03:31:43;;;;;;;61.93;5.10;;;;;;;;;;5073997;28;20474;-68
2022/08/30 03:34:10;;;;;;;60.77;5.50;;;;;;;;;;5074121;28;20447;-68
2022/08/30 03:36:37;;;;;;;59.73;4.20;;;;;;;;;;5073976;28;20858;-67
2022/08/30 03:39:05;;;;;;;61.70;5.40;;;;;;;;;;5073743;28;20628;-68
2022/08/30 03:41:33;;;;;;;61.80;5.10;;;;;;;;;;5073844;28;21075;-67
2022/08/30 03:44:01;;;;;;;60.50;4.60;;;;;;;;;;5073437;28;20470;-68
2022/08/30 03:46:28;;;;;;;60.70;5.10;;;;;;;;;;5073604;28;20788;-68
2022/08/30 03:48:55;;;;;;;65.83;5.80;;;;;;;;;;5073507;28;20799;-67
2022/08/30 03:51:23;;;;;;;61.83;5.60;;;;;;;;;;5073481;28;20484;-68
2022/08/30 03:53:50;;;;;;;62.30;5.70;;;;;;;;;;5073659;28;20465;-68
2022/08/30 03:56:17;;;;;;;63.00;5.10;;;;;;;;;;5073538;28;20473;-68
2022/08/30 03:58:46;;;;;;;60.67;5.30;;;;;;;;;;5073050;28;20454;-67
2022/08/30 04:01:13;;;;;;;61.00;4.70;;;;;;;;;;5073193;28;20490;-67
2022/08/30 04:03:40;;;;;;;61.20;5.67;;;;;;;;;;5073422;28;20809;-68
2022/08/30 04:06:07;;;;;;;62.30;5.03;;;;;;;;;;5073285;28;20512;-67
2022/08/30 04:08:34;;;;;;;61.10;5.20;;;;;;;;;;5072998;28;20487;-67
2022/08/30 04:11:02;;;;;;;61.20;5.63;;;;;;;;;;5073084;28;20448;-67
2022/08/30 04:13:29;;;;;;;61.13;5.20;;;;;;;;;;5072991;28;20476;-68
2022/08/30 04:15:58;;;;;;;61.23;5.37;;;;;;;;;;5073334;28;20448;-67
2022/08/30 04:18:25;;;;;;;62.03;5.77;;;;;;;;;;5073312;28;20451;-68
2022/08/30 04:20:53;;;;;;;62.13;5.80;;;;;;;;;;5072820;28;20480;-67
2022/08/30 04:23:20;;;;;;;61.40;5.23;;;;;;;;;;5073548;28;20477;-68
2022/08/30 04:25:47;;;;;;;61.57;5.37;;;;;;;;;;5072858;28;21015;-68
2022/08/30 04:28:15;;;;;;;62.97;6.03;;;;;;;;;;5072581;28;20449;-67
2022/08/30 04:30:42;;;;;;;65.80;5.80;;;;;;;;;;5072797;28;20456;-68
2022/08/30 04:33:11;;;;;;;60.73;4.93;;;;;;;;;;5072908;28;20465;-67
2022/08/30 04:35:41;;;;;;;62.77;5.90;;;;;;;;;;5072636;28;20544;-68
2022/08/30 04:38:08;;;;;;;63.10;7.13;;;;;;;;;;5072730;28;20460;-67
2022/08/30 04:40:35;;;;;;;61.80;4.97;;;;;;;;;;5072272;28;21024;-67
2022/08/30 04:43:02;;;;;;;62.70;6.20;;;;;;;;;;5072467;28;20526;-67
2022/08/30 04:45:29;;;;;;;61.33;5.67;;;;;;;;;;5072374;28;20536;-68
2022/08/30 04:47:57;;;;;;;63.87;6.30;;;;;;;;;;5072812;28;20560;-67
2022/08/30 04:50:25;;;;;;;63.70;5.77;;;;;;;;;;5072121;28;20443;-68
2022/08/30 04:52:52;;;;;;;60.80;5.40;;;;;;;;;;5072216;28;20469;-68
2022/08/30 04:55:20;;;;;;;63.47;6.77;;;;;;;;;;5072527;28;20819;-68
2022/08/30 04:57:47;;;;;;;63.10;6.70;;;;;;;;;;5072586;28;20446;-68
2022/08/30 05:00:15;;;;;;;62.90;6.57;;;;;;;;;;5072116;28;20492;-68
2022/08/30 05:02:42;;;;;;;62.50;5.80;;;;;;;;;;5072259;28;20469;-68
2022/08/30 05:07:56;;;;;;;62.60;6.70;;;;;;;;;;5071955;28;20504;-68
2022/08/30 05:10:26;;;;;;;61.87;5.73;;;;;;;;;;5072148;28;20541;-68
2022/08/30 05:12:53;;;;;;;67.00;5.80;;;;;;;;;;5072069;28;20556;-68
2022/08/30 05:15:21;;;;;;;65.13;5.60;;;;;;;;;;5072200;28;20456;-68
2022/08/30 05:17:48;;;;;;;60.93;6.00;;;;;;;;;;5072032;28;20462;-68
2022/08/30 05:20:16;;;;;;;63.27;5.10;;;;;;;;;;5071536;28;20457;-68
2022/08/30 05:22:48;;;;;;;60.67;5.07;;;;;;;;;;5072163;28;20811;-68
2022/08/30 05:25:17;;;;;;;61.40;5.90;;;;;;;;;;5072284;28;20445;-69
2022/08/30 05:27:44;;;;;;;62.23;5.70;;;;;;;;;;5071891;28;20943;-68
2022/08/30 05:30:12;;;;;;;63.00;6.53;;;;;;;;;;5071594;28;20445;-69
2022/08/30 05:32:39;;;;;;;61.33;5.90;;;;;;;;;;5071735;28;20836;-68
2022/08/30 05:35:07;;;;;;;61.80;5.47;;;;;;;;;;5071811;28;20931;-68
2022/08/30 05:37:34;;;;;;;64.03;6.37;;;;;;;;;;5071996;28;20442;-67
2022/08/30 05:40:01;;;;;;;60.67;6.03;;;;;;;;;;5071507;28;20451;-68
2022/08/30 05:42:30;;;;;;;61.00;5.00;;;;;;;;;;5071809;28;20554;-68
2022/08/30 05:44:57;;;;;;;61.43;6.17;;;;;;;;;;5071854;28;20819;-68
2022/08/30 05:47:24;;;;;;;61.20;4.93;;;;;;;;;;5071632;28;20990;-68
2022/08/30 05:49:51;;;;;;;61.80;5.63;;;;;;;;;;5071654;28;20457;-68
2022/08/30 05:52:18;;;;;;;61.97;5.87;;;;;;;;;;5071707;28;20490;-68
2022/08/30 05:54:46;;;;;;;60.70;4.77;;;;;;;;;;5071811;28;20451;-68
2022/08/30 05:57:13;;;;;;;62.33;5.23;;;;;;;;;;5071722;28;20452;-68
2022/08/30 05:59:41;;;;;;;63.83;5.47;;;;;;;;;;5071374;28;20714;-69
2022/08/30 06:02:09;;;;;;;60.87;5.00;;;;;;;;;;5071745;28;20459;-68
2022/08/30 06:04:36;;;;;;;61.00;5.10;;;;;;;;;;5071592;28;20934;-68
2022/08/30 06:07:03;;;;;;;60.37;5.23;;;;;;;;;;5071691;28;20451;-68
2022/08/30 06:09:31;;;;;;;60.60;5.53;;;;;;;;;;5071208;28;20546;-67
2022/08/30 06:11:58;;;;;;;60.93;5.37;;;;;;;;;;5071551;28;20483;-68
2022/08/30 06:14:25;;;;;;;59.27;3.93;;;;;;;;;;5071414;28;20455;-68
2022/08/30 06:16:54;;;;;;;61.60;5.53;;;;;;;;;;5071408;28;20458;-68
2022/08/30 06:19:22;;;;;;;59.90;4.97;;;;;;;;;;5073145;28;20447;-67
2022/08/30 06:21:50;;;;;;;62.27;4.80;;;;;;;;;;5075135;28;20936;-68
2022/08/30 06:24:17;;;;;;;61.40;4.40;;;;;;;;;;5075391;28;20455;-68
2022/08/30 06:26:46;;;;;;;62.00;5.60;;;;;;;;;;5075125;28;20457;-68
2022/08/30 06:29:14;;;;;;;61.83;4.57;;;;;;;;;;5075007;28;20455;-68
2022/08/30 06:31:42;;;;;;;60.97;5.40;;;;;;;;;;5074772;28;20493;-68
2022/08/30 06:34:10;;;;;;;60.40;5.37;;;;;;;;;;5075080;28;20462;-69
2022/08/30 06:36:37;;;;;;;61.03;5.17;;;;;;;;;;5075030;28;20837;-68
2022/08/30 06:39:06;;;;;;;61.20;5.20;;;;;;;;;;5074611;28;20453;-68
2022/08/30 06:41:34;;;;;;;66.23;6.00;;;;;;;;;;5075092;28;20443;-68
2022/08/30 06:44:02;;;;;;;61.13;5.50;;;;;;;;;;5075567;28;20470;-68
2022/08/30 06:46:32;;;;;;;60.67;5.03;;;;;;;;;;5075012;28;20451;-68
2022/08/30 06:48:59;;;;;;;60.27;4.23;;;;;;;;;;5074733;28;20446;-69
2022/08/30 06:51:28;;;;;;;70.00;7.70;;;;;;;;;;5074651;28;20486;-68
2022/08/30 06:53:56;;;;;;;61.93;4.63;;;;;;;;;;5074450;28;20976;-67
2022/08/30 06:56:23;;;;;;;60.90;4.90;;;;;;;;;;5074881;28;20473;-68
2022/08/30 06:58:51;;;;;;;60.47;4.83;;;;;;;;;;5074526;28;20470;-68
2022/08/30 07:01:18;;;;;;;60.40;5.07;;;;;;;;;;5074630;28;20446;-68
2022/08/30 07:03:46;;;;;;;60.80;5.87;;;;;;;;;;5074424;28;20625;-69
2022/08/30 07:06:13;;;;;;;59.90;4.23;;;;;;;;;;5074428;28;20448;-68
2022/08/30 07:08:41;;;;;;;61.40;5.73;;;;;;;;;;5074046;28;20542;-68
2022/08/30 07:11:09;;;;;;;59.43;4.50;;;;;;;;;;5074770;28;20483;-68
2022/08/30 07:13:37;;;;;;;59.53;4.10;;;;;;;;;;5074349;28;20471;-67
2022/08/30 07:16:09;;;;;;;61.90;4.23;;;;;;;;;;5074602;28;20450;-68
2022/08/30 07:18:53;;;;;;;60.07;4.30;;;;;;;;;;5074029;28;20460;-68
2022/08/30 07:21:21;;;;;;;60.00;4.50;;;;;;;;;;5074198;28;20494;-67
2022/08/30 07:23:50;;;;;;;59.60;3.97;;;;;;;;;;5074360;28;20891;-68
2022/08/30 07:26:18;;;;;;;76.33;4.73;;;;;;;;;;5074603;28;20810;-68
2022/08/30 07:28:46;;;;;;;59.50;4.40;;;;;;;;;;5074222;28;20450;-68
2022/08/30 07:31:16;;;;;;;60.63;4.10;;;;;;;;;;5074463;28;20990;-68
2022/08/30 07:33:44;;;;;;;63.63;4.87;;;;;;;;;;5074687;28;20463;-68
2022/08/30 07:36:11;;;;;;;61.20;4.37;;;;;;;;;;5073946;28;20459;-68
2022/08/30 07:38:39;;;;;;;60.20;4.03;;;;;;;;;;5074017;28;20451;-68
2022/08/30 07:41:08;;;;;;;60.17;4.30;;;;;;;;;;5074560;28;20834;-69
2022/08/30 07:43:35;;;;;;;60.67;4.63;;;;;;;;;;5074348;28;20477;-68
2022/08/30 07:46:03;;;;;;;59.10;4.13;;;;;;;;;;5074609;28;20447;-68
2022/08/30 07:48:30;;;;;;;60.13;4.93;;;;;;;;;;5074672;28;20458;-69
2022/08/30 07:50:58;;;;;;;60.57;4.20;;;;;;;;;;5074850;28;20466;-69
2022/08/30 07:53:25;;;;;;;60.00;4.23;;;;;;;;;;5074583;28;20983;-69
2022/08/30 07:55:52;;;;;;;59.97;3.80;;;;;;;;;;5073981;28;20447;-68
2022/08/30 07:58:21;;;;;;;61.70;4.10;;;;;;;;;;5073890;28;20454;-68
2022/08/30 08:00:48;;;;;;;60.93;3.67;;;;;;;;;;5074149;28;20444;-68
2022/08/30 08:03:15;;;;;;;60.83;4.10;;;;;;;;;;5075057;28;20530;-69
2022/08/30 08:05:43;;;;;;;60.67;3.83;;;;;;;;;;5074937;28;20540;-69
2022/08/30 08:08:11;;;;;;;59.57;5.00;;;;;;;;;;5075311;28;20447;-69
2022/08/30 08:10:39;;;;;;;60.00;4.23;;;;;;;;;;5074833;28;20453;-69
2022/08/30 08:13:06;;;;;;;60.10;4.23;;;;;;;;;;5074448;28;20999;-68
2022/08/30 08:15:34;;;;;;;59.27;3.80;;;;;;;;;;5075705;28;20452;-69
2022/08/30 08:18:01;;;;;;;60.07;4.07;;;;;;;;;;5075530;28;20455;-69
2022/08/30 08:20:29;;;;;;;59.43;3.80;;;;;;;;;;5075347;28;20447;-68
2022/08/30 08:22:56;;;;;;;59.47;3.70;;;;;;;;;;5074902;28;20466;-69
2022/08/30 08:25:23;;;;;;;60.43;4.00;;;;;;;;;;5075123;28;20447;-69
2022/08/30 08:27:51;;;;;;;59.40;3.60;;;;;;;;;;5074989;28;20496;-68
2022/08/30 08:30:18;;;;;;;60.67;4.43;;;;;;;;;;5074387;28;20454;-69
2022/08/30 08:32:47;;;;;;;59.70;3.90;;;;;;;;;;5074708;28;20487;-69
2022/08/30 08:35:15;;;;;;;60.40;4.10;;;;;;;;;;5074252;28;20525;-68
2022/08/30 08:37:42;;;;;;;60.07;5.03;;;;;;;;;;5074399;28;20447;-69
2022/08/30 08:40:10;;;;;;;59.20;3.60;;;;;;;;;;5073893;28;20826;-69
2022/08/30 08:42:46;;;;;;;60.87;4.10;;;;;;;;;;5073542;28;20812;-68
2022/08/30 08:45:15;;;;;;;59.27;3.80;;;;;;;;;;5074473;28;20535;-69
2022/08/30 08:47:43;;;;;;;62.63;5.30;;;;;;;;;;5074134;28;20444;-68
2022/08/30 08:50:14;;;;;;;60.20;4.67;;;;;;;;;;5072800;28;20958;-68
2022/08/30 08:55:30;;;;;;;60.73;4.00;;;;;;;;;;5073517;28;20446;-68
2022/08/30 08:57:58;;;;;;;60.80;3.60;;;;;;;;;;5073939;28;20447;-69
2022/08/30 09:00:25;;;;;;;61.60;4.93;;;;;;;;;;5074698;28;20451;-69
2022/08/30 09:02:57;;;;;;;60.23;4.27;;;;;;;;;;5074717;28;20474;-69
2022/08/30 09:05:27;;;;;;;59.30;3.63;;;;;;;;;;5075045;28;20452;-69
2022/08/30 09:07:58;;;;;;;59.60;4.30;;;;;;;;;;5073237;28;20447;-68
2022/08/30 09:10:25;;;;;;;60.10;4.27;;;;;;;;;;5073522;28;20479;-67
2022/08/30 09:12:53;;;;;;;59.73;3.90;;;;;;;;;;5072651;28;20502;-68
2022/08/30 09:15:22;;;;;;;58.60;3.63;;;;;;;;;;5073484;28;20512;-68
2022/08/30 09:17:51;;;;;;;59.60;4.10;;;;;;;;;;5072655;28;20940;-67
2022/08/30 09:20:26;;;;;;;59.57;3.93;;;;;;;;;;5073337;28;20445;-68
2022/08/30 09:22:53;;;;;;;58.27;3.73;;;;;;;;;;5073120;28;20486;-68
2022/08/30 09:25:23;;;;;;;60.30;4.10;;;;;;;;;;5072250;28;20447;-68
2022/08/30 09:27:51;;;;;;;59.03;3.73;;;;;;;;;;5072778;28;20451;-67
2022/08/30 09:30:20;;;;;;;59.20;4.00;;;;;;;;;;5072063;28;20444;-69
2022/08/30 09:32:52;;;;;;;59.07;3.53;;;;;;;;;;5071996;28;20494;-68
2022/08/30 09:35:20;;;;;;;58.67;3.90;;;;;;;;;;5072254;28;20954;-69
2022/08/30 09:37:53;;;;;;;60.03;4.27;;;;;;;;;;5072274;28;20447;-68
2022/08/30 09:40:24;;;;;;;58.77;3.40;;;;;;;;;;5072034;28;20462;-67
2022/08/30 09:42:59;;;;;;;59.00;3.57;;;;;;;;;;5072395;28;20464;-69
2022/08/30 09:45:30;;;;;;;59.07;3.60;;;;;;;;;;5072338;28;20443;-68
2022/08/30 09:47:57;;;;;;;58.57;3.73;;;;;;;;;;5072280;28;20516;-68
2022/08/30 09:50:27;;;;;;;58.97;4.10;;;;;;;;;;5073188;28;20447;-69
2022/08/30 09:53:08;;;;;;;58.57;3.33;;;;;;;;;;5074695;28;20522;-67
2022/08/30 09:55:53;;;;;;;59.40;3.70;;;;;;;;;;5077046;28;20451;-68
2022/08/30 09:58:23;;;;;;;58.60;3.33;;;;;;;;;;5075879;28;20457;-68
2022/08/30 10:00:53;;;;;;;59.17;3.43;;;;;;;;;;5075935;28;20473;-68
2022/08/30 10:03:24;;;;;;;58.67;3.30;;;;;;;;;;5075582;28;20465;-68
2022/08/30 10:05:56;;;;;;;59.10;3.70;;;;;;;;;;5075859;28;20443;-69
2022/08/30 10:08:30;;;;;;;58.33;3.30;;;;;;;;;;5076761;28;20451;-69
2022/08/30 10:10:59;;;;;;;58.53;3.47;;;;;;;;;;5075678;28;20443;-67
2022/08/30 10:13:43;;;;;;;59.00;3.90;;;;;;;;;;5075657;28;20489;-68
2022/08/30 10:16:15;;;;;;;61.40;3.90;;;;;;;;;;5076014;28;20457;-68
2022/08/30 10:18:46;;;;;;;57.87;3.10;;;;;;;;;;5075841;28;20447;-67
2022/08/30 10:21:16;;;;;;;58.23;3.00;;;;;;;;;;5075579;28;20823;-66
2022/08/30 10:23:46;;;;;;;58.30;3.50;;;;;;;;;;5075953;28;20846;-67
2022/08/30 10:26:16;;;;;;;57.50;2.73;;;;;;;;;;5075788;28;20447;-66
2022/08/30 10:28:45;;;;;;;58.00;3.30;;;;;;;;;;5075436;28;20469;-66
2022/08/30 10:31:15;;;;;;;57.07;2.87;;;;;;;;;;5076167;28;20446;-67
2022/08/30 10:33:44;;;;;;;57.70;2.80;;;;;;;;;;5076236;28;20491;-67
2022/08/30 10:36:12;;;;;;;58.40;3.07;;;;;;;;;;5075657;28;20466;-66
2022/08/30 10:38:40;;;;;;;58.63;3.27;;;;;;;;;;5076124;28;20447;-67
2022/08/30 10:41:14;;;;;;;57.80;3.20;;;;;;;;;;5076200;28;20455;-67
2022/08/30 10:43:44;;;;;;;57.00;2.47;;;;;;;;;;5076044;28;20467;-66
2022/08/30 10:46:15;;;;;;;57.43;2.93;;;;;;;;;;5076457;28;20454;-67
2022/08/30 10:48:44;;;;;;;58.10;3.30;;;;;;;;;;5075626;28;20443;-67
2022/08/30 10:51:15;;;;;;;58.27;3.33;;;;;;;;;;5075957;28;20513;-66
2022/08/30 10:53:45;;;;;;;57.00;2.90;;;;;;;;;;5075356;28;21045;-67
2022/08/30 10:56:15;;;;;;;58.00;2.93;;;;;;;;;;5075366;28;20800;-67
2022/08/30 10:58:43;;;;;;;57.30;3.43;;;;;;;;;;5074470;28;20451;-67
2022/08/30 11:01:19;;;;;;;57.30;2.80;;;;;;;;;;5074874;28;20443;-66
2022/08/30 11:04:02;;;;;;;58.47;3.27;;;;;;;;;;5074971;28;20858;-66
2022/08/30 11:06:34;;;;;;;58.30;4.20;;;;;;;;;;5075252;28;20497;-66
2022/08/30 11:09:10;;;;;;;57.40;3.20;;;;;;;;;;5075206;28;20810;-67
2022/08/30 11:11:46;;;;;;;57.87;3.40;;;;;;;;;;5075655;28;20542;-67
2022/08/30 11:14:16;;;;;;;60.20;2.90;;;;;;;;;;5075370;28;20529;-66
2022/08/30 11:16:45;;;;;;;56.73;3.23;;;;;;;;;;5075064;28;20474;-67
2022/08/30 11:19:15;;;;;;;57.87;3.60;;;;;;;;;;5074525;28;20447;-67
2022/08/30 11:21:44;;;;;;;57.20;2.90;;;;;;;;;;5075248;28;20447;-67
2022/08/30 11:24:12;;;;;;;57.73;3.50;;;;;;;;;;5075688;28;20483;-67
2022/08/30 11:26:56;;;;;;;57.10;2.93;;;;;;;;;;5075114;28;20872;-66
2022/08/30 11:29:34;;;;;;;57.70;3.40;;;;;;;;;;5076214;28;20477;-66
2022/08/30 11:32:19;;;;;;;57.80;3.07;;;;;;;;;;5075205;28;20474;-66
2022/08/30 11:35:00;;;;;;;58.30;3.80;;;;;;;;;;5075735;28;20444;-66
2022/08/30 11:37:36;;;;;;;57.67;3.27;;;;;;;;;;5075612;28;20807;-66
2022/08/30 11:40:04;;;;;;;58.63;3.27;;;;;;;;;;5074045;28;21088;-66
2022/08/30 11:42:37;;;;;;;57.40;2.93;;;;;;;;;;5075009;28;20486;-66
2022/08/30 11:45:23;;;;;;;57.70;2.73;;;;;;;;;;5074967;28;20940;-67
2022/08/30 11:47:50;;;;;;;57.70;3.40;;;;;;;;;;5074188;28;20935;-67
2022/08/30 11:50:21;;;;;;;58.20;3.43;;;;;;;;;;5074435;28;20448;-66
2022/08/30 11:52:55;;;;;;;57.50;2.90;;;;;;;;;;5076038;28;20463;-66
2022/08/30 11:55:29;;;;;;;57.97;3.10;;;;;;;;;;5075195;28;20826;-66
2022/08/30 11:58:06;;;;;;;58.03;3.00;;;;;;;;;;5074205;28;20534;-66
2022/08/30 12:00:34;;;;;;;59.50;3.50;;;;;;;;;;5074248;28;20781;-66
2022/08/30 12:03:02;;;;;;;58.37;3.27;;;;;;;;;;5073306;28;20483;-66
2022/08/30 12:05:44;;;;;;;57.30;2.80;;;;;;;;;;5073544;28;20457;-65
2022/08/30 12:08:32;;;;;;;57.80;3.00;;;;;;;;;;5071689;28;20450;-66
2022/08/30 12:11:02;;;;;;;58.37;2.90;;;;;;;;;;5073823;28;20458;-66
2022/08/30 12:13:48;;;;;;;59.10;3.30;;;;;;;;;;5073420;28;20451;-66
2022/08/30 12:16:18;;;;;;;57.47;2.83;;;;;;;;;;5072425;28;20450;-66
2022/08/30 12:18:46;;;;;;;59.30;3.53;;;;;;;;;;5073575;28;20452;-67
2022/08/30 12:21:15;;;;;;;57.93;3.37;;;;;;;;;;5075118;28;20531;-67
2022/08/30 12:23:48;;;;;;;58.00;2.90;;;;;;;;;;5073650;28;20487;-66
2022/08/30 12:26:19;;;;;;;57.50;2.60;;;;;;;;;;5073769;28;20453;-66
2022/08/30 12:28:47;;;;;;;58.90;3.53;;;;;;;;;;5072787;28;20447;-66
2022/08/30 12:31:16;;;;;;;58.30;3.07;;;;;;;;;;5072823;28;20459;-66
2022/08/30 12:33:44;;;;;;;58.47;3.40;;;;;;;;;;5073001;28;20968;-66
2022/08/30 12:36:16;;;;;;;58.37;3.17;;;;;;;;;;5073196;28;20965;-66
2022/08/30 12:38:43;;;;;;;58.70;3.17;;;;;;;;;;5073190;28;20447;-67
2022/08/30 12:41:18;;;;;;;58.30;3.10;;;;;;;;;;5073048;28;20451;-66
2022/08/30 12:43:50;;;;;;;58.30;3.37;;;;;;;;;;5072498;28;20856;-66
2022/08/30 12:46:18;;;;;;;59.47;3.53;;;;;;;;;;5072845;28;20455;-66
2022/08/30 12:48:45;;;;;;;58.00;2.83;;;;;;;;;;5072476;28;20462;-66
2022/08/30 12:51:26;;;;;;;61.10;3.90;;;;;;;;;;5073528;28;20781;-66
2022/08/30 12:53:54;;;;;;;58.20;3.60;;;;;;;;;;5072448;28;20463;-66
2022/08/30 12:56:21;;;;;;;58.10;3.47;;;;;;;;;;5071920;28;20887;-66
2022/08/30 12:58:51;;;;;;;58.30;3.43;;;;;;;;;;5071919;28;20471;-67
2022/08/30 13:01:20;;;;;;;57.60;3.20;;;;;;;;;;5072879;28;20448;-67
2022/08/30 13:04:02;;;;;;;57.83;3.20;;;;;;;;;;5073725;28;20489;-67
2022/08/30 13:06:43;;;;;;;58.10;2.80;;;;;;;;;;5071704;28;20462;-66
2022/08/30 13:09:12;;;;;;;57.60;2.90;;;;;;;;;;5073668;28;20439;-66
2022/08/30 13:11:40;;;;;;;58.20;3.83;;;;;;;;;;5073473;28;20833;-66
2022/08/30 13:14:21;;;;;;;57.80;3.23;;;;;;;;;;5072702;28;20435;-66
2022/08/30 13:16:48;;;;;;;58.20;3.40;;;;;;;;;;5072252;28;20438;-66
2022/08/30 13:19:27;;;;;;;57.80;3.20;;;;;;;;;;5071288;28;20455;-66
2022/08/30 13:21:55;;;;;;;58.27;3.13;;;;;;;;;;5072234;28;20461;-66
2022/08/30 13:24:23;;;;;;;57.47;3.00;;;;;;;;;;5071928;28;20486;-67
2022/08/30 13:26:50;;;;;;;57.60;3.03;;;;;;;;;;5072962;28;20470;-66
2022/08/30 13:29:18;;;;;;;57.57;3.13;;;;;;;;;;5071793;28;20474;-66
2022/08/30 13:31:47;;;;;;;57.67;3.00;;;;;;;;;;5072607;28;20793;-67
2022/08/30 13:34:17;;;;;;;57.70;3.13;;;;;;;;;;5073808;28;20446;-66
2022/08/30 13:36:46;;;;;;;57.60;3.30;;;;;;;;;;5072568;28;20463;-66
2022/08/30 13:39:15;;;;;;;56.97;2.90;;;;;;;;;;5071826;28;20452;-67
2022/08/30 13:41:42;;;;;;;56.90;2.70;;;;;;;;;;5070652;28;20542;-65
2022/08/30 13:44:10;;;;;;;57.87;3.10;;;;;;;;;;5070626;28;20609;-66
2022/08/30 13:46:39;;;;;;;57.30;2.93;;;;;;;;;;5071845;28;20439;-66
2022/08/30 13:49:09;;;;;;;57.30;3.37;;;;;;;;;;5070000;28;20631;-66
2022/08/30 13:51:36;;;;;;;56.67;2.87;;;;;;;;;;5071164;28;20469;-65
2022/08/30 13:54:03;;;;;;;57.77;3.03;;;;;;;;;;5071647;28;20546;-66
2022/08/30 13:56:31;;;;;;;57.70;3.33;;;;;;;;;;5071358;28;20548;-66
2022/08/30 13:58:58;;;;;;;57.53;3.10;;;;;;;;;;5070057;28;20474;-66
2022/08/30 14:01:25;;;;;;;57.80;3.03;;;;;;;;;;5069905;28;20451;-65
2022/08/30 14:03:52;;;;;;;57.10;2.80;;;;;;;;;;5070290;28;20483;-66
2022/08/30 14:06:21;;;;;;;57.20;3.00;;;;;;;;;;5070527;28;20974;-66
2022/08/30 14:08:48;;;;;;;57.40;3.00;;;;;;;;;;5071180;28;20451;-66
2022/08/30 14:11:16;;;;;;;57.10;3.00;;;;;;;;;;5071272;28;20443;-66
2022/08/30 14:13:43;;;;;;;57.40;3.00;;;;;;;;;;5070657;28;20467;-66
2022/08/30 14:16:11;;;;;;;57.90;3.30;;;;;;;;;;5071170;28;20822;-66
2022/08/30 14:18:38;;;;;;;57.50;2.90;;;;;;;;;;5071074;28;20451;-66
2022/08/30 14:21:05;;;;;;;56.90;3.00;;;;;;;;;;5071043;28;20443;-67
2022/08/30 14:23:33;;;;;;;59.23;3.03;;;;;;;;;;5070948;28;20479;-67
2022/08/30 14:26:04;;;;;;;57.10;2.53;;;;;;;;;;5071017;28;20459;-65
2022/08/30 14:28:31;;;;;;;57.47;3.10;;;;;;;;;;5071195;28;20808;-65
2022/08/30 14:30:58;;;;;;;57.57;3.30;;;;;;;;;;5070699;28;20447;-66
2022/08/30 14:33:25;;;;;;;57.27;3.00;;;;;;;;;;5070441;28;20469;-66
2022/08/30 14:35:52;;;;;;;58.03;3.07;;;;;;;;;;5070597;28;21015;-65
2022/08/30 14:38:19;;;;;;;58.50;3.50;;;;;;;;;;5069705;28;20455;-65
2022/08/30 14:40:48;;;;;;;58.30;3.70;;;;;;;;;;5073577;28;20443;-65
2022/08/30 14:43:15;;;;;;;57.73;3.20;;;;;;;;;;5074777;28;20493;-66
2022/08/30 14:45:42;;;;;;;58.17;3.40;;;;;;;;;;5074317;28;20455;-66
2022/08/30 14:48:09;;;;;;;57.20;3.00;;;;;;;;;;5074755;28;20447;-66